Time;durP1;ratioP1;P1;durP2;ratioP2;P2;SDS_P1;SDS_P2;PMS_P1;PMS_P2;Temp;Humidity;BMP_temperature;BMP_pressure;BME280_temperature;BME280_humidity;BME280_pressure;Samples;Min_cycle;Max_cycle;Signal;HPM_P1;HPM_P2
2021/07/01 00:00:34;;;;;;;;;;;12.20;99.90;;;;;;4999508;28;19909;-83
2021/07/01 00:02:59;;;;;;;;;;;12.20;99.90;;;;;;5016441;28;20354;-86
2021/07/01 00:05:25;;;;;;;;;;;12.10;99.90;;;;;;4999688;28;20360;-82
2021/07/01 00:07:50;;;;;;;;;;;12.10;99.90;;;;;;4999895;28;19910;-83
2021/07/01 00:10:18;;;;;;;;;;;12.20;99.90;;;;;;4999842;28;20315;-83
2021/07/01 00:12:44;;;;;;;;;;;12.20;99.90;;;;;;4999858;28;19952;-84
2021/07/01 00:15:13;;;;;;;;;;;12.20;99.90;;;;;;5016496;28;19971;-83
2021/07/01 00:17:39;;;;;;;;;;;12.10;99.90;;;;;;4998636;28;19913;-83
2021/07/01 00:20:06;;;;;;;;;;;12.10;99.90;;;;;;4999744;28;19916;-83
2021/07/01 00:22:31;;;;;;;;;;;12.10;99.90;;;;;;4999437;28;19913;-83
2021/07/01 00:24:57;;;;;;;;;;;12.10;99.90;;;;;;5016765;28;20330;-82
2021/07/01 00:27:22;;;;;;;;;;;12.10;99.90;;;;;;4998648;28;20368;-83
2021/07/01 00:29:48;;;;;;;;;;;12.10;99.90;;;;;;4999111;28;19909;-83
2021/07/01 00:32:13;;;;;;;;;;;12.10;99.90;;;;;;4998958;28;20356;-82
2021/07/01 00:34:39;;;;;;;;;;;12.10;99.90;;;;;;5015082;28;19952;-83
2021/07/01 00:37:04;;;;;;;;;;;12.10;99.90;;;;;;4997000;28;20365;-84
2021/07/01 00:39:30;;;;;;;;;;;12.10;99.90;;;;;;5015055;28;20091;-82
2021/07/01 00:41:55;;;;;;;;;;;12.20;99.90;;;;;;5015252;28;19910;-83
2021/07/01 00:44:21;;;;;;;;;;;12.20;99.90;;;;;;5015138;28;19910;-83
2021/07/01 00:46:46;;;;;;;;;;;12.20;99.90;;;;;;5015016;28;19910;-83
2021/07/01 00:49:12;;;;;;;;;;;12.20;99.90;;;;;;5015212;28;19933;-83
2021/07/01 00:51:38;;;;;;;;;;;12.20;99.90;;;;;;4997293;28;19913;-82
2021/07/01 00:54:04;;;;;;;;;;;12.10;99.90;;;;;;4997499;28;19921;-82
2021/07/01 00:56:36;;;;;;;;;;;12.10;99.90;;;;;;4996975;28;19917;-83
2021/07/01 00:59:02;;;;;;;;;;;12.10;99.90;;;;;;4997386;28;20406;-83
2021/07/01 01:01:28;;;;;;;;;;;12.20;99.90;;;;;;4997098;28;19910;-83
2021/07/01 01:03:53;;;;;;;;;;;12.20;99.90;;;;;;4997176;28;19910;-82
2021/07/01 01:06:19;;;;;;;;;;;12.10;99.90;;;;;;4997004;28;19919;-83
2021/07/01 01:08:44;;;;;;;;;;;12.10;99.90;;;;;;5014423;28;19913;-83
2021/07/01 01:11:10;;;;;;;;;;;12.20;99.90;;;;;;5014858;28;20009;-83
2021/07/01 01:13:35;;;;;;;;;;;12.20;99.90;;;;;;4996811;28;19916;-85
2021/07/01 01:16:01;;;;;;;;;;;12.20;99.90;;;;;;5014363;28;19932;-83
2021/07/01 01:18:28;;;;;;;;;;;12.20;99.90;;;;;;4996583;28;19941;-83
2021/07/01 01:20:54;;;;;;;;;;;12.10;99.90;;;;;;5014601;28;19972;-85
2021/07/01 01:23:20;;;;;;;;;;;12.10;99.90;;;;;;4996738;28;19909;-83
2021/07/01 01:26:12;;;;;;;;;;;12.20;99.90;;;;;;4996861;28;19910;-83
2021/07/01 01:28:37;;;;;;;;;;;12.10;99.90;;;;;;5008636;28;19959;-85
2021/07/01 01:31:03;;;;;;;;;;;12.20;99.90;;;;;;5014083;28;19917;-82
2021/07/01 01:33:29;;;;;;;;;;;12.10;99.90;;;;;;4996513;28;19920;-82
2021/07/01 01:35:59;;;;;;;;;;;12.10;99.90;;;;;;4996427;28;19980;-83
2021/07/01 01:38:25;;;;;;;;;;;12.10;99.90;;;;;;5013754;28;20291;-83
2021/07/01 01:40:50;;;;;;;;;;;12.10;99.90;;;;;;4996649;28;19910;-83
2021/07/01 01:43:17;;;;;;;;;;;12.20;99.90;;;;;;4996147;28;19916;-83
2021/07/01 01:45:43;;;;;;;;;;;12.20;99.90;;;;;;4996475;28;19916;-84
2021/07/01 01:48:09;;;;;;;;;;;12.20;99.90;;;;;;4996395;28;19917;-83
2021/07/01 01:50:34;;;;;;;;;;;12.20;99.90;;;;;;4996448;28;19910;-83
2021/07/01 01:53:00;;;;;;;;;;;12.20;99.90;;;;;;5013980;28;20390;-84
2021/07/01 01:55:26;;;;;;;;;;;12.20;99.90;;;;;;4996315;28;19914;-83
2021/07/01 01:57:52;;;;;;;;;;;12.20;99.90;;;;;;4992422;28;19910;-83
2021/07/01 02:00:18;;;;;;;;;;;12.20;99.90;;;;;;4996231;28;20261;-82
2021/07/01 02:02:44;;;;;;;;;;;12.20;99.90;;;;;;4996303;28;19916;-83
2021/07/01 02:05:10;;;;;;;;;;;12.30;99.90;;;;;;4996386;28;19910;-82
2021/07/01 02:07:36;;;;;;;;;;;12.20;99.90;;;;;;4995876;28;19910;-83
2021/07/01 02:10:02;;;;;;;;;;;12.20;99.90;;;;;;4996239;28;19917;-83
2021/07/01 02:12:29;;;;;;;;;;;12.20;99.90;;;;;;4996205;28;19913;-82
2021/07/01 02:14:55;;;;;;;;;;;12.20;99.90;;;;;;5013636;28;19913;-83
2021/07/01 02:17:21;;;;;;;;;;;12.30;99.90;;;;;;5013580;28;20355;-84
2021/07/01 02:19:46;;;;;;;;;;;12.30;99.90;;;;;;4995938;28;20013;-83
2021/07/01 02:22:12;;;;;;;;;;;12.30;99.90;;;;;;4995999;28;19917;-82
2021/07/01 02:24:37;;;;;;;;;;;12.30;99.90;;;;;;4995779;28;19909;-83
2021/07/01 02:27:03;;;;;;;;;;;12.40;99.90;;;;;;4995589;28;20352;-84
2021/07/01 02:29:28;;;;;;;;;;;12.40;99.90;;;;;;4995798;28;19963;-83
2021/07/01 02:31:54;;;;;;;;;;;12.40;99.90;;;;;;4995885;28;19917;-83
2021/07/01 02:34:19;;;;;;;;;;;12.40;99.90;;;;;;4995798;28;19910;-83
2021/07/01 02:36:45;;;;;;;;;;;12.40;99.90;;;;;;4995511;28;20311;-84
2021/07/01 02:39:10;;;;;;;;;;;12.40;99.90;;;;;;4995535;28;19910;-83
2021/07/01 02:41:36;;;;;;;;;;;12.50;99.90;;;;;;4998472;28;19916;-83
2021/07/01 02:44:02;;;;;;;;;;;12.50;99.90;;;;;;4999402;28;19917;-83
2021/07/01 02:46:28;;;;;;;;;;;12.50;99.90;;;;;;5016825;28;19909;-82
2021/07/01 02:48:53;;;;;;;;;;;12.50;99.90;;;;;;5003938;28;19910;-82
2021/07/01 02:51:32;;;;;;;;;;;12.50;99.90;;;;;;5010718;28;19920;-83
2021/07/01 02:53:58;;;;;;;;;;;12.50;99.90;;;;;;4999465;28;19916;-86
2021/07/01 02:56:23;;;;;;;;;;;12.50;99.90;;;;;;4998933;28;19913;-82
2021/07/01 02:58:49;;;;;;;;;;;12.50;99.90;;;;;;4999234;28;20265;-83
2021/07/01 03:01:15;;;;;;;;;;;12.50;99.90;;;;;;4998987;28;20024;-83
2021/07/01 03:03:41;;;;;;;;;;;12.50;99.90;;;;;;4998919;28;19916;-82
2021/07/01 03:06:06;;;;;;;;;;;12.40;99.90;;;;;;4999245;28;19910;-83
2021/07/01 03:08:32;;;;;;;;;;;12.50;99.90;;;;;;4998967;28;19909;-84
2021/07/01 03:10:57;;;;;;;;;;;12.50;99.90;;;;;;4999086;28;19910;-83
2021/07/01 03:13:23;;;;;;;;;;;12.50;99.90;;;;;;4999149;28;19963;-83
2021/07/01 03:15:48;;;;;;;;;;;12.50;99.90;;;;;;5016384;28;20012;-83
2021/07/01 03:18:14;;;;;;;;;;;12.50;99.90;;;;;;5016422;28;19987;-84
2021/07/01 03:20:39;;;;;;;;;;;12.50;99.90;;;;;;4998892;28;19916;-83
2021/07/01 03:23:05;;;;;;;;;;;12.40;99.90;;;;;;5016636;28;19910;-83
2021/07/01 03:25:31;;;;;;;;;;;12.50;99.90;;;;;;5016398;28;20367;-83
2021/07/01 03:27:56;;;;;;;;;;;12.50;99.90;;;;;;4998495;28;19913;-85
2021/07/01 03:30:23;;;;;;;;;;;12.50;99.90;;;;;;4998686;28;19914;-83
2021/07/01 03:32:48;;;;;;;;;;;12.40;99.90;;;;;;4998618;28;19956;-84
2021/07/01 03:35:14;;;;;;;;;;;12.50;99.90;;;;;;4998579;28;19968;-83
2021/07/01 03:37:39;;;;;;;;;;;12.50;99.90;;;;;;5016229;28;19914;-82
2021/07/01 03:40:08;;;;;;;;;;;12.50;99.90;;;;;;4998534;28;19911;-83
2021/07/01 03:42:34;;;;;;;;;;;12.50;99.90;;;;;;4998427;28;20257;-83
2021/07/01 03:44:59;;;;;;;;;;;12.50;99.90;;;;;;4998451;28;19910;-83
2021/07/01 03:47:25;;;;;;;;;;;12.50;99.90;;;;;;4998101;28;19916;-82
2021/07/01 03:49:50;;;;;;;;;;;12.50;99.90;;;;;;4998443;28;20364;-83
2021/07/01 03:52:16;;;;;;;;;;;12.50;99.90;;;;;;4997331;28;20004;-83
2021/07/01 03:54:41;;;;;;;;;;;12.50;99.90;;;;;;4998030;28;19921;-83
2021/07/01 03:57:07;;;;;;;;;;;12.50;99.90;;;;;;4997907;28;19937;-84
2021/07/01 03:59:32;;;;;;;;;;;12.50;99.90;;;;;;4997805;28;20411;-83
2021/07/01 04:01:58;;;;;;;;;;;12.50;99.90;;;;;;4997933;28;20391;-83
2021/07/01 04:04:23;;;;;;;;;;;12.60;99.90;;;;;;5015192;28;19936;-83
2021/07/01 04:06:49;;;;;;;;;;;12.60;99.90;;;;;;4997666;28;19916;-83
2021/07/01 04:09:14;;;;;;;;;;;12.60;99.90;;;;;;4997485;28;20004;-83
2021/07/01 04:11:40;;;;;;;;;;;12.70;99.90;;;;;;4997508;28;19924;-84
2021/07/01 04:14:05;;;;;;;;;;;12.70;99.90;;;;;;4997250;28;20059;-84
2021/07/01 04:16:31;;;;;;;;;;;12.70;99.90;;;;;;4997420;28;19933;-83
2021/07/01 04:18:56;;;;;;;;;;;12.80;99.90;;;;;;4997582;28;19909;-83
2021/07/01 04:21:27;;;;;;;;;;;12.80;99.90;;;;;;4997458;28;20288;-83
2021/07/01 04:23:52;;;;;;;;;;;12.80;99.90;;;;;;5015085;28;19916;-83
2021/07/01 04:26:18;;;;;;;;;;;12.80;99.90;;;;;;4997404;28;19910;-83
2021/07/01 04:28:43;;;;;;;;;;;12.80;99.90;;;;;;4997070;28;19964;-83
2021/07/01 04:31:09;;;;;;;;;;;12.80;99.90;;;;;;4997049;28;19918;-83
2021/07/01 04:33:34;;;;;;;;;;;12.80;99.90;;;;;;4996975;28;19909;-84
2021/07/01 04:36:00;;;;;;;;;;;12.80;99.90;;;;;;4997083;28;19964;-83
2021/07/01 04:38:25;;;;;;;;;;;12.70;99.90;;;;;;4997059;28;19913;-82
2021/07/01 04:40:51;;;;;;;;;;;12.70;99.90;;;;;;4996975;28;19909;-83
2021/07/01 04:43:16;;;;;;;;;;;12.80;99.90;;;;;;4996972;28;19909;-83
2021/07/01 04:45:42;;;;;;;;;;;12.80;99.90;;;;;;5014500;28;20383;-82
2021/07/01 04:48:08;;;;;;;;;;;12.80;99.90;;;;;;5014305;28;19909;-83
2021/07/01 04:50:33;;;;;;;;;;;12.80;99.90;;;;;;5014567;28;19910;-83
2021/07/01 04:52:59;;;;;;;;;;;12.80;99.90;;;;;;4996961;28;19999;-83
2021/07/01 04:55:25;;;;;;;;;;;12.80;99.90;;;;;;4996751;28;19914;-85
2021/07/01 04:57:50;;;;;;;;;;;12.80;99.90;;;;;;4997249;28;19917;-83
2021/07/01 05:00:16;;;;;;;;;;;12.90;99.90;;;;;;4997071;28;19909;-82
2021/07/01 05:02:41;;;;;;;;;;;12.90;99.90;;;;;;4996636;28;19932;-83
2021/07/01 05:05:07;;;;;;;;;;;13.00;99.90;;;;;;4995646;28;19909;-83
2021/07/01 05:07:33;;;;;;;;;;;13.00;99.90;;;;;;4996497;28;20310;-83
2021/07/01 05:09:58;;;;;;;;;;;13.00;99.90;;;;;;5014063;28;19935;-83
2021/07/01 05:12:24;;;;;;;;;;;13.10;99.90;;;;;;4996275;28;19917;-83
2021/07/01 05:14:49;;;;;;;;;;;13.20;99.90;;;;;;4996082;28;19940;-84
2021/07/01 05:17:15;;;;;;;;;;;13.20;99.90;;;;;;4996262;28;19909;-82
2021/07/01 05:19:40;;;;;;;;;;;13.30;99.90;;;;;;4996340;28;19936;-83
2021/07/01 05:22:06;;;;;;;;;;;13.30;99.90;;;;;;4996163;28;19909;-83
2021/07/01 05:24:31;;;;;;;;;;;13.30;99.90;;;;;;4996166;28;19917;-84
2021/07/01 05:26:57;;;;;;;;;;;13.40;99.90;;;;;;4995883;28;19917;-82
2021/07/01 05:29:22;;;;;;;;;;;13.40;99.90;;;;;;4996076;28;20327;-83
2021/07/01 05:31:48;;;;;;;;;;;13.40;99.90;;;;;;4996081;28;19917;-83
2021/07/01 05:34:13;;;;;;;;;;;13.40;99.90;;;;;;5013778;28;19964;-82
2021/07/01 05:36:39;;;;;;;;;;;13.50;99.90;;;;;;5014272;28;19949;-82
2021/07/01 05:39:07;;;;;;;;;;;13.60;99.90;;;;;;5015756;28;19916;-83
2021/07/01 05:41:32;;;;;;;;;;;13.60;99.90;;;;;;4996607;28;19941;-83
2021/07/01 05:44:01;;;;;;;;;;;13.70;99.90;;;;;;4996313;28;19910;-83
2021/07/01 05:46:26;;;;;;;;;;;13.70;99.90;;;;;;4996432;28;19909;-83
2021/07/01 05:48:52;;;;;;;;;;;13.80;99.90;;;;;;4996385;28;19917;-83
2021/07/01 05:51:18;;;;;;;;;;;13.80;99.90;;;;;;4996013;28;19932;-82
2021/07/01 05:56:09;;;;;;;;;;;13.80;99.90;;;;;;5013712;28;19921;-83
2021/07/01 05:58:34;;;;;;;;;;;13.90;99.90;;;;;;5013162;28;19917;-83
2021/07/01 06:01:00;;;;;;;;;;;13.90;99.90;;;;;;4997195;28;20485;-82
2021/07/01 06:03:25;;;;;;;;;;;13.90;99.90;;;;;;4997865;28;19929;-83
2021/07/01 06:05:55;;;;;;;;;;;13.90;99.90;;;;;;5015228;28;20011;-83
2021/07/01 06:08:27;;;;;;;;;;;13.90;99.90;;;;;;4996995;28;20052;-83
2021/07/01 06:11:02;;;;;;;;;;;13.90;99.90;;;;;;5014827;28;19917;-83
2021/07/01 06:13:28;;;;;;;;;;;13.90;99.90;;;;;;4996909;28;19910;-82
2021/07/01 06:15:54;;;;;;;;;;;13.90;99.90;;;;;;4998561;28;20025;-84
2021/07/01 06:18:20;;;;;;;;;;;13.80;99.90;;;;;;5017301;28;19910;-84
2021/07/01 06:20:46;;;;;;;;;;;13.80;99.90;;;;;;5018054;28;19913;-84
2021/07/01 06:23:11;;;;;;;;;;;13.80;99.90;;;;;;5000274;28;19917;-83
2021/07/01 06:25:38;;;;;;;;;;;13.80;99.90;;;;;;5000936;28;19910;-83
2021/07/01 06:28:07;;;;;;;;;;;13.80;99.90;;;;;;5000192;28;19944;-82
2021/07/01 06:30:36;;;;;;;;;;;13.80;99.90;;;;;;5000807;28;19921;-82
2021/07/01 06:33:14;;;;;;;;;;;13.80;99.90;;;;;;5002723;28;19916;-83
2021/07/01 06:35:46;;;;;;;;;;;13.80;99.90;;;;;;5020506;28;20419;-82
2021/07/01 06:38:14;;;;;;;;;;;13.90;99.90;;;;;;5001588;28;19992;-82
2021/07/01 06:40:40;;;;;;;;;;;13.90;99.90;;;;;;5001630;28;19910;-82
2021/07/01 06:43:06;;;;;;;;;;;14.00;99.90;;;;;;5002944;28;19916;-82
2021/07/01 06:45:33;;;;;;;;;;;14.10;99.90;;;;;;5003419;28;19993;-83
2021/07/01 06:47:59;;;;;;;;;;;14.20;99.90;;;;;;5019079;28;19910;-82
2021/07/01 06:50:26;;;;;;;;;;;14.20;99.90;;;;;;5020583;28;20388;-82
2021/07/01 06:52:52;;;;;;;;;;;14.20;99.90;;;;;;5020407;28;19960;-82
2021/07/01 06:55:17;;;;;;;;;;;14.30;99.90;;;;;;5018724;28;19918;-82
2021/07/01 06:57:43;;;;;;;;;;;14.30;99.90;;;;;;5017284;28;19913;-81
2021/07/01 07:00:13;;;;;;;;;;;14.40;99.90;;;;;;5001499;28;20346;-83
2021/07/01 07:02:40;;;;;;;;;;;14.50;99.90;;;;;;5019545;28;20012;-82
2021/07/01 07:05:09;;;;;;;;;;;14.50;99.90;;;;;;5019998;28;19910;-82
2021/07/01 07:07:34;;;;;;;;;;;14.60;99.90;;;;;;5019472;28;19910;-82
2021/07/01 07:10:04;;;;;;;;;;;14.60;99.90;;;;;;5019663;28;19910;-82
2021/07/01 07:12:31;;;;;;;;;;;14.70;99.90;;;;;;5019544;28;19913;-83
2021/07/01 07:14:57;;;;;;;;;;;14.70;99.90;;;;;;5019381;28;19913;-82
2021/07/01 07:17:27;;;;;;;;;;;14.80;99.90;;;;;;5002282;28;19910;-83
2021/07/01 07:19:53;;;;;;;;;;;15.00;99.90;;;;;;5003109;28;19945;-81
2021/07/01 07:22:19;;;;;;;;;;;15.00;99.90;;;;;;5002132;28;19913;-83
2021/07/01 07:24:47;;;;;;;;;;;15.10;99.90;;;;;;5020350;28;20335;-84
2021/07/01 07:27:14;;;;;;;;;;;15.10;99.90;;;;;;5001147;28;20396;-81
2021/07/01 07:29:41;;;;;;;;;;;15.20;99.90;;;;;;5001503;28;19914;-84
2021/07/01 07:32:08;;;;;;;;;;;15.20;99.90;;;;;;5020002;28;19917;-83
2021/07/01 07:34:34;;;;;;;;;;;15.30;99.90;;;;;;5003457;28;20340;-82
2021/07/01 07:36:59;;;;;;;;;;;15.30;99.90;;;;;;5002567;28;19999;-82
2021/07/01 07:39:29;;;;;;;;;;;15.30;99.90;;;;;;5002414;28;19956;-83
2021/07/01 07:41:55;;;;;;;;;;;15.40;99.90;;;;;;5019321;28;20004;-84
2021/07/01 07:44:20;;;;;;;;;;;15.40;99.90;;;;;;4999716;28;19957;-82
2021/07/01 07:46:48;;;;;;;;;;;15.60;99.90;;;;;;5000815;28;19955;-81
2021/07/01 07:49:13;;;;;;;;;;;15.70;99.90;;;;;;5019707;28;19910;-81
2021/07/01 07:51:40;;;;;;;;;;;15.90;99.90;;;;;;5018152;28;20451;-82
2021/07/01 07:54:06;;;;;;;;;;;16.10;99.90;;;;;;5014900;28;20008;-83
2021/07/01 07:56:38;;;;;;;;;;;16.30;99.90;;;;;;5019176;28;20383;-82
2021/07/01 07:59:05;;;;;;;;;;;16.30;99.90;;;;;;5018640;28;19921;-82
2021/07/01 08:01:31;;;;;;;;;;;16.30;99.90;;;;;;5009509;28;20055;-86
2021/07/01 08:03:58;;;;;;;;;;;16.20;99.90;;;;;;5008824;28;20017;-82
2021/07/01 08:06:24;;;;;;;;;;;16.20;99.90;;;;;;5013647;28;19909;-82
2021/07/01 08:08:52;;;;;;;;;;;16.10;99.90;;;;;;5002071;28;19921;-84
2021/07/01 08:11:17;;;;;;;;;;;16.00;99.90;;;;;;5002502;28;19955;-83
2021/07/01 08:13:43;;;;;;;;;;;15.90;99.90;;;;;;5001048;28;19909;-82
2021/07/01 08:16:08;;;;;;;;;;;15.90;99.90;;;;;;5004523;28;20401;-86
2021/07/01 08:18:39;;;;;;;;;;;15.90;99.90;;;;;;5018577;28;19916;-85
2021/07/01 08:21:15;;;;;;;;;;;16.00;99.90;;;;;;5002219;28;19956;-83
2021/07/01 08:23:42;;;;;;;;;;;16.00;99.90;;;;;;5001895;28;20287;-82
2021/07/01 08:26:08;;;;;;;;;;;15.90;99.90;;;;;;5001408;28;19917;-82
2021/07/01 08:28:34;;;;;;;;;;;15.90;99.90;;;;;;5019045;28;19910;-82
2021/07/01 08:31:16;;;;;;;;;;;15.90;99.90;;;;;;5000433;28;19976;-82
2021/07/01 08:33:44;;;;;;;;;;;15.70;99.90;;;;;;5001538;28;19996;-84
2021/07/01 08:36:17;;;;;;;;;;;15.70;99.90;;;;;;5020222;28;19980;-85
2021/07/01 08:38:42;;;;;;;;;;;15.70;99.90;;;;;;5001599;28;20379;-83
2021/07/01 08:41:18;;;;;;;;;;;15.70;99.90;;;;;;5018911;28;19916;-84
2021/07/01 08:43:52;;;;;;;;;;;15.60;99.90;;;;;;5001934;28;19945;-82
2021/07/01 08:46:41;;;;;;;;;;;15.60;99.90;;;;;;5000989;28;20386;-83
2021/07/01 08:49:08;;;;;;;;;;;15.60;99.90;;;;;;5002071;28;19917;-84
2021/07/01 08:51:42;;;;;;;;;;;15.60;99.90;;;;;;5001830;28;19916;-83
2021/07/01 08:54:08;;;;;;;;;;;15.60;99.90;;;;;;5000474;28;19909;-82
2021/07/01 08:56:37;;;;;;;;;;;15.60;99.90;;;;;;5018085;28;19959;-87
2021/07/01 08:59:06;;;;;;;;;;;15.60;99.90;;;;;;4999721;28;20050;-82
2021/07/01 09:01:32;;;;;;;;;;;15.70;99.90;;;;;;5001181;28;19909;-82
2021/07/01 09:03:58;;;;;;;;;;;15.70;99.90;;;;;;5019969;28;19917;-83
2021/07/01 09:06:25;;;;;;;;;;;15.70;99.90;;;;;;5017967;28;19909;-82
2021/07/01 09:08:52;;;;;;;;;;;15.80;99.90;;;;;;5001041;28;20318;-83
2021/07/01 09:11:19;;;;;;;;;;;15.90;99.90;;;;;;5001322;28;20269;-82
2021/07/01 09:13:46;;;;;;;;;;;15.90;99.90;;;;;;5016989;28;19909;-83
2021/07/01 09:16:12;;;;;;;;;;;16.00;99.90;;;;;;5016023;28;19921;-89
2021/07/01 09:18:39;;;;;;;;;;;15.90;99.90;;;;;;5016450;28;19955;-82
2021/07/01 09:21:05;;;;;;;;;;;15.90;99.90;;;;;;4999873;28;20395;-83
2021/07/01 09:23:31;;;;;;;;;;;15.80;99.90;;;;;;4999618;28;19909;-82
2021/07/01 09:25:59;;;;;;;;;;;15.80;99.90;;;;;;5017041;28;20285;-85
2021/07/01 09:28:25;;;;;;;;;;;15.80;99.90;;;;;;4995451;28;19996;-85
2021/07/01 09:30:54;;;;;;;;;;;15.90;99.90;;;;;;4998652;28;19968;-82
2021/07/01 09:33:19;;;;;;;;;;;15.70;99.90;;;;;;4999676;28;19914;-83
2021/07/01 09:35:45;;;;;;;;;;;15.70;99.90;;;;;;5013973;28;19914;-84
2021/07/01 09:38:11;;;;;;;;;;;15.50;99.90;;;;;;4999035;28;19916;-83
2021/07/01 09:40:37;;;;;;;;;;;15.50;99.90;;;;;;5015834;28;19910;-83
2021/07/01 09:43:04;;;;;;;;;;;15.40;99.90;;;;;;4999358;28;19911;-83
2021/07/01 09:45:31;;;;;;;;;;;15.60;99.90;;;;;;5001980;28;19919;-85
2021/07/01 09:48:04;;;;;;;;;;;15.90;99.90;;;;;;5016524;28;19916;-83
2021/07/01 09:50:32;;;;;;;;;;;16.10;99.90;;;;;;5015881;28;19920;-83
2021/07/01 09:52:58;;;;;;;;;;;16.20;99.90;;;;;;5016120;28;19925;-85
2021/07/01 09:55:25;;;;;;;;;;;16.40;99.90;;;;;;4999859;28;19921;-85
2021/07/01 09:57:52;;;;;;;;;;;16.40;99.90;;;;;;5017905;28;19917;-84
2021/07/01 10:00:18;;;;;;;;;;;16.30;99.90;;;;;;5016479;28;19910;-82
2021/07/01 10:02:44;;;;;;;;;;;16.20;99.90;;;;;;4996871;28;19910;-83
2021/07/01 10:05:24;;;;;;;;;;;16.10;99.90;;;;;;5017451;28;20291;-82
2021/07/01 10:07:49;;;;;;;;;;;16.00;99.90;;;;;;5016616;28;20447;-84
2021/07/01 10:10:15;;;;;;;;;;;16.00;99.90;;;;;;5015386;28;19953;-83
2021/07/01 10:12:51;;;;;;;;;;;16.00;99.90;;;;;;5012603;28;20016;-83
2021/07/01 10:15:24;;;;;;;;;;;16.00;99.90;;;;;;5016565;28;20357;-83
2021/07/01 10:18:02;;;;;;;;;;;16.00;99.90;;;;;;4998741;28;20265;-87
2021/07/01 10:20:33;;;;;;;;;;;16.00;99.90;;;;;;4998359;28;19956;-83
2021/07/01 10:22:59;;;;;;;;;;;16.00;99.90;;;;;;5017302;28;19909;-86
2021/07/01 10:25:32;;;;;;;;;;;16.10;99.90;;;;;;5016315;28;19968;-83
2021/07/01 10:28:08;;;;;;;;;;;16.20;99.90;;;;;;5016398;28;19910;-83
2021/07/01 10:30:33;;;;;;;;;;;16.30;99.90;;;;;;4998310;28;20017;-83
2021/07/01 10:32:59;;;;;;;;;;;16.50;99.90;;;;;;5016429;28;19953;-83
2021/07/01 10:35:29;;;;;;;;;;;16.70;99.90;;;;;;5015477;28;20387;-83
2021/07/01 10:37:59;;;;;;;;;;;16.90;99.90;;;;;;4998731;28;19917;-83
2021/07/01 10:40:25;;;;;;;;;;;17.10;99.90;;;;;;4998249;28;19910;-83
2021/07/01 10:42:51;;;;;;;;;;;17.30;99.90;;;;;;5016653;28;19996;-83
2021/07/01 10:45:17;;;;;;;;;;;17.30;99.90;;;;;;5015288;28;19910;-83
2021/07/01 10:47:43;;;;;;;;;;;17.30;99.90;;;;;;5015531;28;19960;-83
2021/07/01 10:50:25;;;;;;;;;;;17.20;99.90;;;;;;4998037;28;19916;-83
2021/07/01 10:52:51;;;;;;;;;;;17.10;99.90;;;;;;4998966;28;19916;-82
2021/07/01 10:55:17;;;;;;;;;;;16.80;99.90;;;;;;4998828;28;19913;-82
2021/07/01 10:57:50;;;;;;;;;;;16.60;99.90;;;;;;5016566;28;19968;-82
2021/07/01 11:00:21;;;;;;;;;;;16.40;99.90;;;;;;4998173;28;20371;-83
2021/07/01 11:02:49;;;;;;;;;;;16.30;99.90;;;;;;5017834;28;19941;-81
2021/07/01 11:05:15;;;;;;;;;;;16.20;99.90;;;;;;5001495;28;19909;-83
2021/07/01 11:07:41;;;;;;;;;;;16.10;99.90;;;;;;5019636;28;20352;-82
2021/07/01 11:10:07;;;;;;;;;;;16.10;99.90;;;;;;5018402;28;20277;-82
2021/07/01 11:12:40;;;;;;;;;;;16.20;99.90;;;;;;5000799;28;19931;-82
2021/07/01 11:15:06;;;;;;;;;;;16.20;99.90;;;;;;5019054;28;19913;-82
2021/07/01 11:17:33;;;;;;;;;;;16.20;99.90;;;;;;5007588;28;19910;-81
2021/07/01 11:20:11;;;;;;;;;;;16.30;99.90;;;;;;4999180;28;20009;-81
2021/07/01 11:22:56;;;;;;;;;;;16.40;99.90;;;;;;5001129;28;19913;-83
2021/07/01 11:25:25;;;;;;;;;;;16.40;99.90;;;;;;5017150;28;19909;-81
2021/07/01 11:27:50;;;;;;;;;;;16.40;99.90;;;;;;5000385;28;19914;-83
2021/07/01 11:30:23;;;;;;;;;;;16.40;99.90;;;;;;5018708;28;19972;-83
2021/07/01 11:32:49;;;;;;;;;;;16.40;99.90;;;;;;5017618;28;20331;-82
2021/07/01 11:35:25;;;;;;;;;;;16.40;99.90;;;;;;4999804;28;19926;-83
2021/07/01 11:37:53;;;;;;;;;;;16.30;99.90;;;;;;5017402;28;19917;-83
2021/07/01 11:40:20;;;;;;;;;;;16.30;99.90;;;;;;4999959;28;19992;-84
2021/07/01 11:42:47;;;;;;;;;;;16.30;99.90;;;;;;5018543;28;19917;-81
2021/07/01 11:45:12;;;;;;;;;;;16.30;99.90;;;;;;5018308;28;19955;-82
2021/07/01 11:47:40;;;;;;;;;;;16.40;99.90;;;;;;5017671;28;19910;-82
2021/07/01 11:50:06;;;;;;;;;;;16.60;99.90;;;;;;5000230;28;19956;-82
2021/07/01 11:52:32;;;;;;;;;;;16.80;99.90;;;;;;5000494;28;19910;-81
2021/07/01 11:55:01;;;;;;;;;;;17.00;99.90;;;;;;5000130;28;19917;-81
2021/07/01 11:57:27;;;;;;;;;;;17.10;99.90;;;;;;5017417;28;20303;-82
2021/07/01 11:59:53;;;;;;;;;;;17.10;99.90;;;;;;4996648;28;19910;-83
2021/07/01 12:02:19;;;;;;;;;;;16.80;99.90;;;;;;5017339;28;20123;-81
2021/07/01 12:04:45;;;;;;;;;;;16.60;99.90;;;;;;5017356;28;19909;-81
2021/07/01 12:07:24;;;;;;;;;;;16.50;99.90;;;;;;4999489;28;19916;-81
2021/07/01 12:09:50;;;;;;;;;;;16.50;99.90;;;;;;5017440;28;19914;-82
2021/07/01 12:12:18;;;;;;;;;;;16.50;99.90;;;;;;5016372;28;20439;-83
2021/07/01 12:14:45;;;;;;;;;;;16.40;99.90;;;;;;4999018;28;19913;-82
2021/07/01 12:17:11;;;;;;;;;;;16.30;99.90;;;;;;5017112;28;19997;-81
2021/07/01 12:19:46;;;;;;;;;;;16.30;99.90;;;;;;4998998;28;19917;-82
2021/07/01 12:22:30;;;;;;;;;;;16.30;99.90;;;;;;4998676;28;20012;-83
2021/07/01 12:24:55;;;;;;;;;;;16.40;99.90;;;;;;4999497;28;19977;-83
2021/07/01 12:27:29;;;;;;;;;;;16.40;99.90;;;;;;5017468;28;20371;-83
2021/07/01 12:29:54;;;;;;;;;;;16.70;99.90;;;;;;4999473;28;19910;-83
2021/07/01 12:32:27;;;;;;;;;;;16.90;99.90;;;;;;5015293;28;19924;-83
2021/07/01 12:34:52;;;;;;;;;;;17.10;99.90;;;;;;5017508;28;19917;-82
2021/07/01 12:37:20;;;;;;;;;;;17.10;99.90;;;;;;4999644;28;19963;-83
2021/07/01 12:39:47;;;;;;;;;;;17.10;99.90;;;;;;4999817;28;20264;-82
2021/07/01 12:42:16;;;;;;;;;;;17.20;99.90;;;;;;4999193;28;20371;-82
2021/07/01 12:44:45;;;;;;;;;;;17.40;99.90;;;;;;5005711;28;19909;-82
2021/07/01 12:47:31;;;;;;;;;;;17.70;99.90;;;;;;5015702;28;19916;-82
2021/07/01 12:49:59;;;;;;;;;;;18.20;99.90;;;;;;5017976;28;19961;-83
2021/07/01 12:52:32;;;;;;;;;;;18.70;99.90;;;;;;4999501;28;19917;-84
2021/07/01 12:54:58;;;;;;;;;;;18.90;99.90;;;;;;5014726;28;19917;-81
2021/07/01 12:57:24;;;;;;;;;;;19.00;99.90;;;;;;5014883;28;19909;-82
2021/07/01 12:59:50;;;;;;;;;;;19.10;99.90;;;;;;5015161;28;19936;-82
2021/07/01 13:02:18;;;;;;;;;;;19.10;99.90;;;;;;5000353;28;19917;-83
2021/07/01 13:04:48;;;;;;;;;;;18.90;99.90;;;;;;5017317;28;19910;-87
2021/07/01 13:07:16;;;;;;;;;;;18.70;99.90;;;;;;4998263;28;19909;-82
2021/07/01 13:09:48;;;;;;;;;;;18.30;99.90;;;;;;4996727;28;19910;-82
2021/07/01 13:12:26;;;;;;;;;;;18.00;99.90;;;;;;5009796;28;19910;-82
2021/07/01 13:14:52;;;;;;;;;;;17.70;99.90;;;;;;5003316;28;20269;-81
2021/07/01 13:17:19;;;;;;;;;;;17.40;99.90;;;;;;4999261;28;19917;-82
2021/07/01 13:19:46;;;;;;;;;;;17.10;99.90;;;;;;4999793;28;20007;-82
2021/07/01 13:22:13;;;;;;;;;;;16.90;99.90;;;;;;5016226;28;19939;-82
2021/07/01 13:24:58;;;;;;;;;;;16.70;99.90;;;;;;5002405;28;19959;-85
2021/07/01 13:27:32;;;;;;;;;;;16.70;99.90;;;;;;5007267;28;19918;-82
2021/07/01 13:29:58;;;;;;;;;;;16.60;99.90;;;;;;4999240;28;20261;-82
2021/07/01 13:32:25;;;;;;;;;;;16.60;99.90;;;;;;4999023;28;20653;-82
2021/07/01 13:34:51;;;;;;;;;;;16.50;99.90;;;;;;5017633;28;20531;-82
2021/07/01 13:37:27;;;;;;;;;;;16.40;99.90;;;;;;5005914;28;19978;-82
2021/07/01 13:39:53;;;;;;;;;;;16.50;99.90;;;;;;5016843;28;19968;-82
2021/07/01 13:42:23;;;;;;;;;;;16.50;99.90;;;;;;4999248;28;19960;-82
2021/07/01 13:45:22;;;;;;;;;;;16.60;99.90;;;;;;5017556;28;19916;-83
2021/07/01 13:47:55;;;;;;;;;;;16.70;99.90;;;;;;4967043;28;19916;-82
2021/07/01 13:50:22;;;;;;;;;;;16.80;99.90;;;;;;5015195;28;19933;-82
2021/07/01 13:52:48;;;;;;;;;;;17.10;99.90;;;;;;5016394;28;19910;-85
2021/07/01 13:55:24;;;;;;;;;;;17.40;99.90;;;;;;4998725;28;19921;-81
2021/07/01 13:57:53;;;;;;;;;;;17.90;99.90;;;;;;4997883;28;19964;-82
2021/07/01 14:00:23;;;;;;;;;;;18.60;99.90;;;;;;4998415;28;19941;-82
2021/07/01 14:02:49;;;;;;;;;;;19.40;99.90;;;;;;4998742;28;19909;-82
2021/07/01 14:05:25;;;;;;;;;;;20.10;99.90;;;;;;4998847;28;20398;-82
2021/07/01 14:07:50;;;;;;;;;;;20.90;99.90;;;;;;5004985;28;19910;-83
2021/07/01 14:10:16;;;;;;;;;;;21.40;99.90;;;;;;5004460;28;19916;-84
2021/07/01 14:12:42;;;;;;;;;;;21.20;99.90;;;;;;5002763;28;19968;-82
2021/07/01 14:15:10;;;;;;;;;;;20.80;99.90;;;;;;4998927;28;19914;-83
2021/07/01 14:17:35;;;;;;;;;;;20.50;99.90;;;;;;5016966;28;19910;-82
2021/07/01 14:20:02;;;;;;;;;;;20.10;99.90;;;;;;5008731;28;19932;-82